Time;durP1;ratioP1;P1;durP2;ratioP2;P2;SDS_P1;SDS_P2;PMS_P1;PMS_P2;Temp;Humidity;BMP_temperature;BMP_pressure;BME280_temperature;BME280_humidity;BME280_pressure;Samples;Min_cycle;Max_cycle;Signal;HPM_P1;HPM_P2
2023/01/13 00:02:21;;;;;;;104.00;15.00;;;11.10;91.80;;;;;;5084404;28;20040;-57
2023/01/13 00:04:46;;;;;;;101.43;15.60;;;11.10;91.90;;;;;;5087388;28;20111;-57
2023/01/13 00:07:12;;;;;;;92.93;16.00;;;11.10;91.80;;;;;;5089423;28;20059;-57
2023/01/13 00:09:37;;;;;;;94.25;14.05;;;11.10;91.80;;;;;;5088077;28;20028;-57
2023/01/13 00:12:04;;;;;;;106.22;15.07;;;11.00;91.80;;;;;;5088631;28;20031;-57
2023/01/13 00:14:33;;;;;;;79.10;12.77;;;11.10;91.90;;;;;;5087294;28;20403;-57
2023/01/13 00:16:58;;;;;;;81.88;13.85;;;11.00;91.90;;;;;;5104046;28;20021;-57
2023/01/13 00:19:24;;;;;;;99.47;13.60;;;11.00;91.70;;;;;;5088628;28;20086;-57
2023/01/13 00:21:49;;;;;;;102.78;15.18;;;11.00;91.90;;;;;;5104198;28;20058;-57
2023/01/13 00:24:15;;;;;;;85.78;13.00;;;11.00;91.80;;;;;;5086979;28;20044;-57
2023/01/13 00:26:40;;;;;;;83.93;15.10;;;11.00;91.90;;;;;;5104045;28;20445;-57
2023/01/13 00:29:06;;;;;;;94.70;13.15;;;10.90;91.80;;;;;;5104010;28;20036;-58
2023/01/13 00:31:32;;;;;;;79.32;13.68;;;10.90;91.80;;;;;;5086990;28;20044;-57
2023/01/13 00:33:58;;;;;;;79.50;12.25;;;10.90;91.80;;;;;;5088408;28;20501;-57
2023/01/13 00:36:24;;;;;;;80.22;13.25;;;10.90;92.20;;;;;;5103944;28;20084;-57
2023/01/13 00:38:49;;;;;;;74.93;11.90;;;10.90;91.90;;;;;;5088231;28;20021;-57
2023/01/13 00:41:19;;;;;;;68.07;11.63;;;10.90;91.90;;;;;;5088116;28;20166;-57
2023/01/13 00:43:45;;;;;;;64.70;11.48;;;10.90;91.70;;;;;;5087849;28;20068;-57
2023/01/13 00:46:15;;;;;;;57.42;9.82;;;10.90;91.80;;;;;;5103644;28;20024;-57
2023/01/13 00:48:40;;;;;;;74.43;11.70;;;10.90;91.80;;;;;;5087885;28;20028;-57
2023/01/13 00:51:08;;;;;;;63.72;9.70;;;10.90;91.70;;;;;;5087781;28;20028;-57
2023/01/13 00:53:38;;;;;;;70.28;11.48;;;10.90;91.70;;;;;;5103404;28;20031;-57
2023/01/13 00:56:06;;;;;;;58.15;11.07;;;10.90;91.70;;;;;;5086486;28;20027;-58
2023/01/13 00:58:33;;;;;;;76.25;11.05;;;10.80;91.80;;;;;;5103178;28;20036;-57
2023/01/13 01:01:02;;;;;;;72.97;11.13;;;10.80;91.80;;;;;;5086510;28;20062;-57
2023/01/13 01:03:28;;;;;;;53.78;9.90;;;10.80;91.80;;;;;;5102813;28;20047;-58
2023/01/13 01:05:54;;;;;;;53.17;10.25;;;10.80;91.70;;;;;;5103133;28;20044;-57
2023/01/13 01:08:19;;;;;;;53.72;10.27;;;10.80;91.80;;;;;;5103270;28;20040;-57
2023/01/13 01:10:45;;;;;;;59.78;10.20;;;10.80;91.70;;;;;;5087582;28;20028;-57
2023/01/13 01:13:15;;;;;;;49.10;8.90;;;10.80;91.70;;;;;;5086092;28;20047;-57
2023/01/13 01:15:42;;;;;;;55.35;9.30;;;10.80;91.40;;;;;;5086604;28;20075;-57
2023/01/13 01:18:07;;;;;;;45.53;9.07;;;10.80;91.40;;;;;;5102658;28;20036;-57
2023/01/13 01:20:33;;;;;;;37.05;8.27;;;10.80;91.40;;;;;;5102946;28;20082;-57
2023/01/13 01:22:58;;;;;;;45.08;9.07;;;10.80;91.40;;;;;;5086999;28;20032;-57
2023/01/13 01:25:24;;;;;;;48.72;8.73;;;10.80;91.60;;;;;;5087220;28;20028;-57
2023/01/13 01:27:49;;;;;;;57.95;8.48;;;10.70;91.60;;;;;;5102885;28;20029;-57
2023/01/13 01:30:15;;;;;;;46.50;8.48;;;10.80;91.70;;;;;;5087328;28;20085;-57
2023/01/13 01:32:40;;;;;;;42.88;8.05;;;10.80;91.60;;;;;;5087263;28;20052;-57
2023/01/13 01:35:06;;;;;;;35.92;7.70;;;10.70;91.50;;;;;;5102654;28;20384;-57
2023/01/13 01:37:32;;;;;;;38.65;7.53;;;10.80;91.60;;;;;;5087168;28;20025;-57
2023/01/13 01:39:57;;;;;;;36.75;6.68;;;10.70;91.60;;;;;;5087009;28;20024;-57
2023/01/13 01:45:14;;;;;;;34.35;6.60;;;10.70;91.50;;;;;;5086802;28;20061;-57
2023/01/13 01:47:40;;;;;;;45.92;7.70;;;10.70;91.50;;;;;;5086639;28;20115;-57
2023/01/13 01:50:06;;;;;;;46.38;8.43;;;10.70;91.50;;;;;;5085540;28;20048;-57
2023/01/13 01:52:37;;;;;;;58.08;8.50;;;10.70;91.60;;;;;;5102277;28;20032;-57
2023/01/13 01:55:08;;;;;;;38.58;7.85;;;10.70;91.60;;;;;;5085251;28;20090;-57
2023/01/13 01:58:04;;;;;;;42.17;7.18;;;10.70;91.70;;;;;;5085370;28;20094;-57
2023/01/13 02:00:29;;;;;;;40.50;8.37;;;10.70;91.70;;;;;;5085331;28;20089;-57
2023/01/13 02:02:55;;;;;;;43.75;7.85;;;10.70;91.70;;;;;;5102191;28;20087;-57
2023/01/13 02:05:20;;;;;;;36.30;6.78;;;10.70;91.70;;;;;;5101975;28;20070;-57
2023/01/13 02:07:47;;;;;;;31.30;5.78;;;10.70;91.50;;;;;;5086518;28;20028;-57
2023/01/13 02:10:14;;;;;;;29.55;6.00;;;10.70;91.50;;;;;;5085358;28;20051;-57
2023/01/13 02:12:40;;;;;;;19.75;5.57;;;10.60;91.50;;;;;;5102034;28;20088;-57
2023/01/13 02:15:11;;;;;;;27.65;6.95;;;10.60;91.40;;;;;;5085099;28;20040;-57
2023/01/13 02:17:55;;;;;;;32.25;5.93;;;10.60;91.40;;;;;;5084995;28;20032;-57
2023/01/13 02:20:48;;;;;;;20.33;5.40;;;10.60;91.40;;;;;;5086185;28;20048;-57
2023/01/13 02:26:21;;;;;;;29.23;6.35;;;10.60;91.40;;;;;;5085937;28;20035;-57
2023/01/13 02:31:42;;;;;;;20.50;5.10;;;10.60;91.30;;;;;;5099355;28;20123;-57
2023/01/13 02:34:14;;;;;;;17.25;4.45;;;10.60;91.30;;;;;;5101455;28;20037;-57
2023/01/13 02:37:03;;;;;;;24.13;5.35;;;10.60;91.30;;;;;;5085936;28;20029;-57
2023/01/13 02:40:12;;;;;;;38.53;6.20;;;10.60;91.30;;;;;;5084449;28;20032;-57
2023/01/13 02:45:34;;;;;;;21.98;5.53;;;10.60;91.30;;;;;;5084700;28;20154;-57
2023/01/13 02:48:00;;;;;;;26.75;5.88;;;10.60;91.30;;;;;;5084793;28;20033;-57
2023/01/13 02:50:33;;;;;;;24.40;5.78;;;10.60;91.40;;;;;;5084426;28;20101;-57
2023/01/13 02:53:20;;;;;;;20.25;5.30;;;10.60;91.40;;;;;;5084298;28;20227;-57
2023/01/13 02:55:47;;;;;;;26.10;5.70;;;10.60;91.50;;;;;;5076910;28;20033;-57
2023/01/13 02:58:16;;;;;;;25.67;6.03;;;10.60;91.60;;;;;;5084253;28;20025;-58
2023/01/13 03:00:41;;;;;;;21.80;5.22;;;10.60;91.60;;;;;;5084071;28;20077;-58
2023/01/13 03:03:07;;;;;;;20.48;5.75;;;10.60;91.70;;;;;;5083877;28;20025;-58
2023/01/13 03:05:32;;;;;;;21.52;5.35;;;10.60;91.70;;;;;;5085421;28;20028;-58
2023/01/13 03:08:08;;;;;;;18.85;5.43;;;10.60;91.70;;;;;;5084024;28;20020;-58
2023/01/13 03:10:43;;;;;;;22.77;5.68;;;10.60;91.70;;;;;;5085185;28;20028;-58
2023/01/13 03:13:13;;;;;;;26.25;5.03;;;10.60;91.70;;;;;;5100641;28;20032;-57
2023/01/13 03:16:17;;;;;;;24.38;4.82;;;10.60;91.80;;;;;;5100793;28;20055;-58
2023/01/13 03:18:47;;;;;;;15.73;4.68;;;10.60;91.90;;;;;;5085239;28;20040;-60
2023/01/13 03:21:35;;;;;;;18.77;4.47;;;10.60;91.90;;;;;;5100383;28;20124;-60
2023/01/13 03:24:26;;;;;;;21.33;4.13;;;10.60;92.00;;;;;;5100531;28;20043;-60
2023/01/13 03:27:02;;;;;;;21.92;4.97;;;10.60;92.00;;;;;;5097324;28;20048;-60
2023/01/13 03:29:40;;;;;;;22.95;4.97;;;10.60;92.00;;;;;;5100228;28;20095;-60
2023/01/13 03:32:22;;;;;;;18.95;4.97;;;10.60;92.10;;;;;;5100333;28;20071;-60
2023/01/13 03:34:50;;;;;;;16.70;4.63;;;10.60;92.10;;;;;;5083738;28;20135;-59
2023/01/13 03:37:18;;;;;;;19.77;4.45;;;10.60;92.10;;;;;;5083140;28;20040;-59
2023/01/13 03:39:53;;;;;;;14.68;4.32;;;10.60;92.20;;;;;;5083410;28;20024;-60
2023/01/13 03:42:21;;;;;;;23.48;4.68;;;10.60;92.30;;;;;;5099315;28;20085;-57
2023/01/13 03:44:54;;;;;;;18.60;4.40;;;10.60;92.30;;;;;;5083583;28;20064;-58
2023/01/13 03:47:30;;;;;;;14.15;4.28;;;10.60;92.30;;;;;;5100170;28;20040;-57
2023/01/13 03:50:01;;;;;;;8.23;3.00;;;10.60;92.30;;;;;;5099959;28;20124;-57
2023/01/13 03:52:42;;;;;;;18.17;4.90;;;10.60;92.30;;;;;;5083604;28;20025;-58
2023/01/13 03:55:15;;;;;;;15.55;4.68;;;10.60;92.30;;;;;;5083236;28;20085;-57
2023/01/13 03:57:52;;;;;;;13.88;4.28;;;10.60;92.30;;;;;;5100398;28;20028;-57
2023/01/13 04:00:18;;;;;;;11.82;3.95;;;10.60;92.30;;;;;;5083273;28;20052;-57
2023/01/13 04:02:50;;;;;;;14.32;4.43;;;10.60;92.30;;;;;;5100303;28;20037;-57
2023/01/13 04:05:15;;;;;;;16.98;4.32;;;10.60;92.30;;;;;;5100017;28;20028;-58
2023/01/13 04:08:05;;;;;;;13.77;3.67;;;10.60;92.30;;;;;;5083373;28;20028;-58
2023/01/13 04:10:40;;;;;;;16.90;3.92;;;10.60;92.30;;;;;;5084504;28;20036;-57
2023/01/13 04:13:11;;;;;;;14.32;4.88;;;10.60;92.40;;;;;;5083172;28;20078;-57
2023/01/13 04:15:39;;;;;;;12.50;3.63;;;10.60;92.40;;;;;;5083317;28;20032;-57
2023/01/13 04:18:20;;;;;;;15.48;3.33;;;10.60;92.40;;;;;;5083387;28;20036;-57
2023/01/13 04:20:47;;;;;;;11.15;3.35;;;10.60;92.40;;;;;;5099809;28;20099;-58
2023/01/13 04:23:12;;;;;;;10.60;3.65;;;10.60;92.40;;;;;;5083051;28;20090;-58
2023/01/13 04:25:39;;;;;;;17.13;3.53;;;10.60;92.40;;;;;;5083138;28;20037;-57
2023/01/13 04:28:04;;;;;;;10.15;3.40;;;10.60;92.30;;;;;;5084448;28;20028;-58
2023/01/13 04:30:30;;;;;;;13.45;2.88;;;10.60;92.30;;;;;;5084268;28;20029;-58
2023/01/13 04:32:56;;;;;;;9.30;2.50;;;10.60;92.40;;;;;;5084233;28;20031;-58
2023/01/13 04:35:21;;;;;;;11.60;3.15;;;10.60;92.50;;;;;;5099717;28;20025;-58
2023/01/13 04:37:47;;;;;;;10.07;2.85;;;10.60;92.50;;;;;;5099780;28;20094;-57
2023/01/13 04:40:12;;;;;;;11.45;2.92;;;10.50;92.50;;;;;;5099837;28;20017;-58
2023/01/13 04:42:38;;;;;;;10.38;2.70;;;10.50;92.50;;;;;;5099892;28;20029;-57
2023/01/13 04:45:04;;;;;;;8.32;2.90;;;10.50;92.50;;;;;;5084056;28;20037;-58
2023/01/13 04:47:29;;;;;;;9.23;2.70;;;10.50;92.60;;;;;;5082987;28;20031;-58
2023/01/13 04:49:55;;;;;;;10.82;2.65;;;10.50;92.60;;;;;;5103063;28;20028;-58
2023/01/13 04:52:20;;;;;;;9.25;2.63;;;10.50;92.70;;;;;;5087996;28;20025;-58
2023/01/13 04:54:46;;;;;;;13.10;3.17;;;10.50;92.70;;;;;;5103628;28;20020;-58
2023/01/13 04:57:11;;;;;;;10.57;2.53;;;10.50;92.70;;;;;;5103413;28;20433;-57
2023/01/13 04:59:37;;;;;;;10.70;2.28;;;10.50;92.80;;;;;;5103428;28;20436;-58
2023/01/13 05:02:02;;;;;;;17.42;2.53;;;10.50;92.80;;;;;;5086575;28;20025;-58
2023/01/13 05:04:28;;;;;;;5.18;2.00;;;10.50;92.90;;;;;;5087522;28;20043;-58
2023/01/13 05:06:54;;;;;;;6.05;2.13;;;10.50;93.00;;;;;;5087583;28;20141;-57
2023/01/13 05:09:19;;;;;;;13.55;2.83;;;10.50;93.00;;;;;;5103110;28;20084;-58
2023/01/13 05:17:17;;;;;;;15.05;2.28;;;10.50;93.20;;;;;;5100717;28;20063;-58
2023/01/13 05:19:43;;;;;;;10.38;2.15;;;10.50;93.30;;;;;;5086273;28;20048;-58
2023/01/13 05:27:36;;;;;;;8.23;2.33;;;10.50;93.40;;;;;;5087414;28;20042;-58
2023/01/13 05:30:03;;;;;;;7.43;2.30;;;10.50;93.50;;;;;;5085718;28;20111;-58
2023/01/13 05:32:28;;;;;;;6.75;1.67;;;10.50;93.60;;;;;;5102750;28;20033;-58
2023/01/13 05:34:57;;;;;;;6.32;1.90;;;10.50;93.70;;;;;;5085723;28;20017;-58
2023/01/13 05:37:23;;;;;;;6.53;2.33;;;10.40;93.70;;;;;;5102320;28;20049;-58
2023/01/13 05:45:17;;;;;;;6.80;1.67;;;10.50;93.90;;;;;;5100095;28;20040;-58
2023/01/13 05:47:42;;;;;;;6.43;1.40;;;10.40;93.90;;;;;;5102599;28;20485;-58
2023/01/13 05:50:09;;;;;;;7.60;2.15;;;10.40;93.90;;;;;;5085233;28;20020;-58
2023/01/13 05:52:34;;;;;;;4.45;1.50;;;10.40;93.90;;;;;;5085438;28;20084;-58
2023/01/13 05:55:00;;;;;;;4.53;1.67;;;10.50;94.00;;;;;;5085513;28;20021;-58
2023/01/13 05:57:25;;;;;;;7.88;1.75;;;10.50;94.00;;;;;;5102225;28;20043;-58
2023/01/13 05:59:51;;;;;;;11.95;1.90;;;10.40;94.30;;;;;;5102054;28;20016;-58
2023/01/13 06:02:16;;;;;;;3.92;1.83;;;10.40;94.00;;;;;;5086721;28;20045;-58
2023/01/13 06:04:42;;;;;;;5.95;1.80;;;10.50;94.00;;;;;;5086570;28;20029;-58
2023/01/13 06:07:07;;;;;;;5.55;1.70;;;10.50;94.00;;;;;;5102295;28;20059;-58
2023/01/13 06:09:33;;;;;;;4.22;1.75;;;10.40;93.90;;;;;;5086620;28;20028;-59
2023/01/13 06:11:58;;;;;;;5.22;1.80;;;10.40;93.90;;;;;;5085319;28;20047;-58
2023/01/13 06:14:24;;;;;;;3.78;1.42;;;10.40;94.00;;;;;;5086618;28;20047;-58
2023/01/13 06:16:49;;;;;;;5.88;1.63;;;10.40;94.00;;;;;;5086560;28;20489;-58
2023/01/13 06:19:15;;;;;;;7.88;1.75;;;10.40;94.00;;;;;;5102960;28;20059;-58
2023/01/13 06:21:43;;;;;;;5.68;1.50;;;10.40;94.10;;;;;;5086678;28;20138;-58
2023/01/13 06:24:09;;;;;;;6.43;1.40;;;10.40;94.10;;;;;;5085084;28;20043;-58
2023/01/13 06:26:39;;;;;;;6.80;1.73;;;10.40;94.10;;;;;;5101919;28;20100;-58
2023/01/13 06:29:05;;;;;;;8.68;1.85;;;10.40;94.20;;;;;;5084844;28;20029;-58
2023/01/13 06:31:30;;;;;;;3.97;1.92;;;10.40;94.20;;;;;;5086149;28;20124;-60
2023/01/13 06:33:58;;;;;;;5.57;1.50;;;10.30;94.20;;;;;;5101733;28;20055;-59
2023/01/13 06:36:30;;;;;;;4.03;1.73;;;10.40;94.20;;;;;;5101305;28;20444;-60
2023/01/13 06:38:57;;;;;;;7.18;1.60;;;10.40;94.20;;;;;;5084933;28;20096;-59
2023/01/13 06:43:13;;;;;;;5.53;1.50;;;10.30;94.20;;;;;;5084570;28;20031;-60
2023/01/13 06:44:08;;;;;;;3.42;1.60;;;10.40;94.20;;;;;;5084695;28;20112;-60
2023/01/13 06:46:34;;;;;;;7.53;1.48;;;10.40;94.20;;;;;;5084710;28;20029;-60
2023/01/13 06:49:00;;;;;;;3.72;1.90;;;10.30;94.20;;;;;;5084615;28;20437;-60
2023/01/13 06:51:25;;;;;;;4.65;1.50;;;10.30;94.50;;;;;;5101479;28;20025;-60
2023/01/13 06:53:51;;;;;;;4.28;1.40;;;10.30;94.20;;;;;;5084304;28;20142;-58
2023/01/13 06:56:16;;;;;;;3.47;1.63;;;10.30;94.20;;;;;;5084305;28;20056;-58
2023/01/13 06:58:42;;;;;;;3.13;1.63;;;10.30;94.20;;;;;;5085910;28;20067;-58
2023/01/13 07:01:07;;;;;;;7.30;1.40;;;10.30;94.20;;;;;;5101366;28;20059;-59
2023/01/13 07:03:33;;;;;;;4.90;1.73;;;10.30;94.20;;;;;;5085653;28;20028;-58
2023/01/13 07:05:59;;;;;;;3.58;1.52;;;10.30;94.30;;;;;;5101318;28;20024;-59
2023/01/13 07:08:25;;;;;;;3.78;1.17;;;10.30;94.30;;;;;;5084421;28;20029;-58
2023/01/13 07:10:51;;;;;;;6.72;1.50;;;10.30;94.30;;;;;;5084330;28;20017;-59
2023/01/13 07:16:03;;;;;;;3.78;1.70;;;10.30;94.30;;;;;;5084545;28;20115;-58
2023/01/13 07:18:33;;;;;;;8.40;1.60;;;10.30;94.30;;;;;;5085730;28;20032;-58
2023/01/13 07:21:03;;;;;;;6.45;1.50;;;10.30;94.30;;;;;;5084180;28;20024;-58
2023/01/13 07:23:33;;;;;;;2.90;1.20;;;10.30;94.30;;;;;;5085590;28;20033;-58
2023/01/13 07:25:59;;;;;;;14.07;1.95;;;10.30;94.30;;;;;;5085507;28;20033;-58
2023/01/13 07:28:25;;;;;;;4.30;1.45;;;10.30;94.40;;;;;;5083499;28;20166;-59
2023/01/13 07:30:50;;;;;;;4.28;1.48;;;10.30;94.30;;;;;;5100613;28;20028;-58
2023/01/13 07:33:17;;;;;;;3.15;1.58;;;10.30;94.30;;;;;;5099753;28;20055;-58
2023/01/13 07:35:43;;;;;;;7.20;1.60;;;10.30;94.30;;;;;;5083780;28;20095;-58
2023/01/13 07:38:08;;;;;;;2.90;1.30;;;10.30;94.30;;;;;;5085467;28;20032;-58
2023/01/13 07:40:34;;;;;;;7.65;1.30;;;10.30;94.40;;;;;;5083803;28;20047;-58
2023/01/13 07:43:44;;;;;;;5.88;1.38;;;10.30;94.30;;;;;;5100819;28;20032;-58
2023/01/13 07:45:45;;;;;;;5.07;1.42;;;10.30;94.30;;;;;;5077666;28;20075;-58
2023/01/13 07:48:11;;;;;;;5.88;1.52;;;10.30;94.30;;;;;;5083815;28;20024;-58
2023/01/13 07:50:37;;;;;;;3.22;1.45;;;10.30;94.30;;;;;;5085053;28;20055;-58
2023/01/13 07:53:02;;;;;;;7.30;1.67;;;10.30;94.40;;;;;;5085208;28;20043;-58
2023/01/13 07:55:28;;;;;;;7.75;1.80;;;10.30;94.40;;;;;;5100515;28;20465;-58
2023/01/13 07:57:53;;;;;;;5.10;1.80;;;10.30;94.40;;;;;;5085464;28;20039;-58
2023/01/13 08:00:19;;;;;;;9.40;2.58;;;10.30;94.40;;;;;;5085454;28;20089;-58
2023/01/13 08:02:45;;;;;;;8.02;2.05;;;10.30;94.50;;;;;;5098726;28;20046;-58
2023/01/13 08:05:11;;;;;;;7.35;1.88;;;10.30;94.50;;;;;;5082715;28;20142;-58
2023/01/13 08:07:36;;;;;;;13.30;2.05;;;10.30;94.50;;;;;;5084556;28;20047;-58
2023/01/13 08:10:02;;;;;;;8.50;2.20;;;10.30;94.50;;;;;;5084824;28;20499;-58
2023/01/13 08:15:12;;;;;;;11.07;2.55;;;10.30;94.60;;;;;;5085028;28;20031;-58
2023/01/13 08:17:38;;;;;;;18.60;2.80;;;10.20;94.60;;;;;;5084991;28;20084;-58
2023/01/13 08:20:04;;;;;;;15.63;3.13;;;10.30;94.60;;;;;;5085000;28;20021;-58
2023/01/13 08:22:32;;;;;;;14.32;2.50;;;10.30;94.70;;;;;;5100433;28;20028;-57
2023/01/13 08:24:58;;;;;;;17.98;3.28;;;10.30;94.60;;;;;;5086860;28;20085;-58
2023/01/13 08:27:24;;;;;;;22.33;3.42;;;10.30;94.60;;;;;;5070458;28;20036;-58
2023/01/13 08:29:49;;;;;;;33.17;4.25;;;10.30;94.60;;;;;;5087146;28;20033;-58
2023/01/13 08:32:15;;;;;;;43.97;5.00;;;10.30;94.60;;;;;;5086743;28;20024;-58
2023/01/13 08:34:40;;;;;;;46.08;4.85;;;10.30;94.70;;;;;;5086733;28;20036;-58
2023/01/13 08:37:06;;;;;;;42.45;4.55;;;10.30;94.70;;;;;;5087941;28;20037;-58
2023/01/13 08:39:32;;;;;;;46.75;5.70;;;10.30;94.70;;;;;;5087570;28;20032;-58
2023/01/13 08:41:57;;;;;;;37.33;4.85;;;10.30;94.70;;;;;;5088359;28;20048;-58
2023/01/13 08:44:27;;;;;;;44.83;6.22;;;10.30;94.80;;;;;;5090708;28;20047;-58
2023/01/13 08:46:53;;;;;;;32.42;4.55;;;10.30;94.70;;;;;;5107110;28;20111;-58
2023/01/13 08:49:19;;;;;;;48.78;6.10;;;10.40;94.70;;;;;;5098960;28;20078;-58
2023/01/13 08:51:44;;;;;;;53.20;6.60;;;10.40;94.70;;;;;;5069897;28;20031;-58
2023/01/13 08:54:11;;;;;;;42.22;4.57;;;10.40;94.70;;;;;;5086433;28;20040;-58
2023/01/13 08:56:37;;;;;;;46.28;5.80;;;10.40;94.70;;;;;;5088318;28;20028;-58
2023/01/13 08:59:03;;;;;;;41.22;4.93;;;10.40;94.70;;;;;;5086544;28;20099;-58
2023/01/13 09:01:28;;;;;;;114.85;13.73;;;10.40;94.80;;;;;;5069741;28;20028;-58
2023/01/13 09:03:54;;;;;;;56.25;6.05;;;10.40;94.90;;;;;;5086540;28;20053;-58
2023/01/13 09:06:20;;;;;;;41.80;5.78;;;10.40;94.90;;;;;;5086325;28;20502;-58
2023/01/13 09:08:45;;;;;;;32.17;4.28;;;10.40;94.90;;;;;;5086774;28;20503;-58
2023/01/13 09:14:02;;;;;;;111.63;11.30;;;10.50;94.80;;;;;;5086677;28;20099;-58
2023/01/13 09:16:28;;;;;;;39.17;6.88;;;10.40;94.80;;;;;;5086403;28;20041;-58
2023/01/13 09:18:53;;;;;;;43.88;7.07;;;10.50;95.00;;;;;;5069190;28;20039;-58
2023/01/13 09:21:19;;;;;;;152.07;13.52;;;10.50;95.00;;;;;;5087453;28;20028;-58
2023/01/13 09:23:45;;;;;;;64.47;7.88;;;10.50;95.00;;;;;;5086051;28;20036;-58
2023/01/13 09:26:19;;;;;;;140.57;12.32;;;10.50;95.00;;;;;;5085851;28;20079;-58
2023/01/13 09:28:45;;;;;;;165.90;18.42;;;10.50;95.00;;;;;;5086035;28;20024;-58
2023/01/13 09:31:10;;;;;;;164.38;16.27;;;10.50;95.20;;;;;;5087068;28;20020;-58
2023/01/13 09:36:20;;;;;;;151.27;14.88;;;10.60;95.10;;;;;;5086421;28;20043;-58
2023/01/13 09:38:45;;;;;;;114.22;12.52;;;10.50;95.10;;;;;;5085887;28;20037;-58
2023/01/13 09:44:12;;;;;;;99.75;9.98;;;10.50;95.10;;;;;;5085597;28;20056;-58
2023/01/13 09:46:48;;;;;;;90.53;10.30;;;10.50;95.20;;;;;;5085866;28;20428;-58
2023/01/13 09:49:19;;;;;;;;;;;10.50;95.30;;;;;;5070071;28;20092;-58
2023/01/13 09:52:06;;;;;;;65.18;9.55;;;10.60;95.40;;;;;;5097812;28;19928;-58
2023/01/13 09:54:42;;;;;;;89.15;9.82;;;10.60;95.40;;;;;;5073365;28;20037;-58
2023/01/13 09:57:12;;;;;;;63.97;9.45;;;10.60;95.30;;;;;;5068131;28;20029;-58
2023/01/13 09:59:38;;;;;;;99.50;10.57;;;10.60;95.40;;;;;;5081004;28;20097;-59
2023/01/13 10:02:38;;;;;;;146.80;14.40;;;10.60;95.20;;;;;;5082734;28;20024;-59
2023/01/13 10:05:08;;;;;;;111.20;12.50;;;10.60;95.40;;;;;;5085351;28;20037;-58
2023/01/13 10:07:34;;;;;;;78.70;11.35;;;10.60;95.50;;;;;;5080935;28;20040;-58
2023/01/13 10:10:00;;;;;;;82.05;9.07;;;10.60;95.50;;;;;;5081301;28;20036;-58
2023/01/13 10:15:14;;;;;;;67.32;7.90;;;10.70;95.50;;;;;;5084265;28;20086;-58
2023/01/13 10:18:00;;;;;;;111.88;14.00;;;10.60;95.40;;;;;;5084319;28;20086;-58
2023/01/13 10:20:30;;;;;;;126.03;13.70;;;10.60;95.40;;;;;;5090506;28;20032;-58
2023/01/13 10:23:11;;;;;;;145.25;14.00;;;10.60;95.60;;;;;;5082372;28;20050;-58
2023/01/13 10:25:54;;;;;;;101.10;12.70;;;10.60;95.60;;;;;;5086588;28;20021;-59
2023/01/13 10:28:22;;;;;;;116.50;14.25;;;10.70;95.70;;;;;;5084333;28;20040;-59
2023/01/13 10:30:48;;;;;;;175.38;18.17;;;10.70;95.80;;;;;;5083650;28;20130;-58
2023/01/13 10:33:19;;;;;;;332.67;29.63;;;10.70;95.90;;;;;;5082655;28;20071;-58
2023/01/13 10:35:58;;;;;;;160.45;17.35;;;10.70;95.70;;;;;;5086207;28;20051;-56
2023/01/13 10:38:26;;;;;;;111.85;14.05;;;10.70;95.70;;;;;;5068428;28;20028;-58
2023/01/13 10:40:57;;;;;;;77.85;9.18;;;10.70;95.70;;;;;;5082694;28;20034;-58
2023/01/13 10:43:23;;;;;;;141.80;16.58;;;10.70;95.70;;;;;;5084603;28;20036;-58
2023/01/13 10:46:02;;;;;;;182.35;19.83;;;10.70;95.70;;;;;;5084120;28;20043;-58
2023/01/13 10:48:42;;;;;;;142.70;16.50;;;10.70;95.80;;;;;;5082282;28;20048;-58
2023/01/13 10:51:32;;;;;;;109.00;12.40;;;10.70;96.00;;;;;;5078215;28;20021;-58
2023/01/13 10:54:00;;;;;;;77.72;9.52;;;10.70;96.20;;;;;;5094706;28;20034;-59
2023/01/13 10:56:32;;;;;;;71.28;8.68;;;10.80;95.90;;;;;;5083659;28;20040;-58
2023/01/13 10:59:23;;;;;;;105.38;9.77;;;10.80;95.90;;;;;;5070667;28;20039;-58
2023/01/13 11:02:01;;;;;;;143.50;15.18;;;10.70;96.00;;;;;;5097650;28;20315;-58
2023/01/13 11:04:34;;;;;;;147.75;15.27;;;10.80;96.40;;;;;;5103251;28;20460;-60
2023/01/13 11:07:01;;;;;;;170.98;18.70;;;10.80;96.50;;;;;;5082176;28;20043;-60
2023/01/13 11:09:27;;;;;;;195.63;20.92;;;10.90;96.90;;;;;;5065456;28;20041;-60
2023/01/13 11:11:56;;;;;;;229.38;22.25;;;10.90;96.60;;;;;;5081969;28;20024;-60
2023/01/13 11:14:35;;;;;;;249.32;24.92;;;10.90;96.50;;;;;;5097158;28;20044;-61
2023/01/13 11:17:13;;;;;;;242.00;23.50;;;10.90;96.50;;;;;;5081614;28;20084;-61
2023/01/13 11:19:42;;;;;;;142.23;14.63;;;10.90;96.50;;;;;;5076241;28;20032;-61
2023/01/13 11:22:18;;;;;;;222.93;22.98;;;10.90;96.30;;;;;;5070563;28;20052;-61
2023/01/13 11:25:00;;;;;;;193.15;20.50;;;10.90;96.40;;;;;;5045625;28;20037;-61
2023/01/13 11:27:34;;;;;;;212.73;20.73;;;10.90;96.40;;;;;;5063794;28;20370;-60
2023/01/13 11:30:28;;;;;;;214.48;19.42;;;10.90;96.30;;;;;;5063040;28;20037;-60
2023/01/13 11:33:03;;;;;;;136.85;14.98;;;10.90;96.40;;;;;;5064564;28;20477;-60
2023/01/13 11:35:30;;;;;;;109.90;12.07;;;10.90;96.30;;;;;;5064385;28;20383;-60
2023/01/13 11:38:17;;;;;;;96.95;12.25;;;10.90;96.30;;;;;;5063035;28;20033;-60
2023/01/13 11:40:46;;;;;;;129.02;14.25;;;10.90;96.30;;;;;;5079994;28;20029;-60
2023/01/13 11:43:32;;;;;;;129.15;13.70;;;10.90;96.30;;;;;;5063264;28;20112;-60
2023/01/13 11:45:58;;;;;;;108.43;11.68;;;10.90;96.40;;;;;;5079867;28;20466;-60
2023/01/13 11:48:26;;;;;;;101.20;12.38;;;10.90;96.40;;;;;;5063289;28;20029;-61
2023/01/13 11:51:13;;;;;;;165.27;16.85;;;10.90;96.40;;;;;;5079776;28;20052;-61
2023/01/13 11:54:17;;;;;;;112.35;12.73;;;10.90;96.70;;;;;;5064599;28;20037;-60
2023/01/13 11:57:05;;;;;;;103.07;12.25;;;10.90;96.70;;;;;;5079898;28;20049;-60
2023/01/13 11:59:39;;;;;;;126.32;15.10;;;10.90;96.70;;;;;;5064009;28;20052;-60
2023/01/13 12:02:39;;;;;;;153.10;14.52;;;11.00;97.00;;;;;;5063057;28;20187;-60
2023/01/13 12:05:39;;;;;;;127.70;14.18;;;10.90;97.00;;;;;;5077130;28;20037;-60
2023/01/13 12:08:35;;;;;;;154.48;14.93;;;11.00;97.00;;;;;;5062907;28;20036;-60
2023/01/13 12:11:15;;;;;;;121.50;13.10;;;11.00;96.90;;;;;;5063207;28;20099;-60
2023/01/13 12:14:03;;;;;;;98.78;11.07;;;11.00;97.00;;;;;;5062714;28;20052;-60
2023/01/13 12:16:29;;;;;;;101.00;11.38;;;11.00;96.70;;;;;;5062869;28;20465;-59
2023/01/13 12:18:58;;;;;;;69.70;9.32;;;11.00;96.60;;;;;;5063207;28;20094;-60
2023/01/13 12:21:25;;;;;;;112.60;11.10;;;11.00;96.30;;;;;;5071337;28;20042;-60
2023/01/13 12:24:04;;;;;;;127.47;15.20;;;11.00;96.20;;;;;;5082070;28;20032;-60
2023/01/13 12:26:33;;;;;;;101.63;12.48;;;11.00;96.50;;;;;;5083103;28;20127;-60
2023/01/13 12:29:03;;;;;;;156.35;14.57;;;11.00;96.40;;;;;;5082389;28;20032;-60
2023/01/13 12:31:29;;;;;;;126.10;13.32;;;11.00;96.30;;;;;;5082268;28;20107;-60
2023/01/13 12:34:16;;;;;;;111.63;12.35;;;11.00;96.10;;;;;;5082762;28;20555;-60
2023/01/13 12:36:45;;;;;;;102.07;11.07;;;11.00;95.90;;;;;;5083162;28;20066;-60
2023/01/13 12:39:33;;;;;;;72.90;8.65;;;11.00;95.70;;;;;;5084540;28;20495;-60
2023/01/13 12:45:10;;;;;;;68.38;6.55;;;11.00;95.40;;;;;;5082660;28;20110;-60
2023/01/13 12:47:43;;;;;;;59.28;7.15;;;10.90;95.00;;;;;;5083332;28;20032;-60
2023/01/13 12:50:20;;;;;;;66.55;7.60;;;11.00;94.90;;;;;;5066282;28;20024;-61
2023/01/13 12:52:46;;;;;;;67.13;8.95;;;10.90;94.90;;;;;;5084371;28;20067;-60
2023/01/13 12:55:13;;;;;;;77.93;10.63;;;10.90;95.00;;;;;;5065725;28;20021;-60
2023/01/13 12:57:39;;;;;;;79.03;8.52;;;10.90;95.10;;;;;;5065641;28;20040;-60
2023/01/13 13:00:04;;;;;;;94.22;10.15;;;10.90;95.30;;;;;;5082541;28;20017;-60
2023/01/13 13:02:34;;;;;;;73.05;7.40;;;10.80;95.00;;;;;;5083849;28;20043;-60
2023/01/13 13:05:21;;;;;;;114.90;10.63;;;10.90;95.00;;;;;;5082522;28;20106;-60
2023/01/13 13:08:11;;;;;;;62.17;8.65;;;10.90;95.10;;;;;;5068777;28;20065;-60
2023/01/13 13:10:39;;;;;;;88.95;10.35;;;10.90;95.10;;;;;;5081050;28;20032;-60
2023/01/13 13:13:17;;;;;;;75.32;9.32;;;11.00;95.30;;;;;;5086608;28;20092;-60
2023/01/13 13:15:45;;;;;;;90.05;11.23;;;10.90;95.30;;;;;;5086396;28;20107;-60
2023/01/13 13:18:16;;;;;;;117.57;11.77;;;11.00;95.50;;;;;;5069000;28;20032;-59
2023/01/13 13:20:58;;;;;;;110.43;12.00;;;11.00;95.40;;;;;;5087157;28;20036;-60
2023/01/13 13:23:36;;;;;;;73.72;9.80;;;11.00;95.40;;;;;;5085649;28;20036;-60
2023/01/13 13:26:23;;;;;;;116.70;11.85;;;11.00;95.20;;;;;;5087183;28;20040;-60
2023/01/13 13:28:55;;;;;;;83.75;9.77;;;11.10;95.10;;;;;;5085526;28;20035;-60
2023/01/13 13:31:48;;;;;;;59.85;9.15;;;11.10;94.90;;;;;;5087131;28;20108;-60
2023/01/13 13:34:31;;;;;;;85.88;10.88;;;11.00;95.00;;;;;;5085913;28;20032;-60
2023/01/13 13:46:45;;;;;;;87.18;12.15;;;11.10;95.10;;;;;;5085494;28;20024;-60
2023/01/13 13:48:33;;;;;;;87.57;10.77;;;11.20;95.40;;;;;;5085762;28;20487;-60